sensor_id;sensor_type;location;lat;lon;timestamp;P1;durP1;ratioP1;P2;durP2;ratioP2
71108;SDS011;59614;51.012;-1.648;2023-06-24T00:00:55;12.77;;;9.00;;
71108;SDS011;59614;51.012;-1.648;2023-06-24T00:03:21;15.07;;;9.05;;
71108;SDS011;59614;51.012;-1.648;2023-06-24T00:05:46;18.77;;;9.50;;
71108;SDS011;59614;51.012;-1.648;2023-06-24T00:08:15;15.30;;;9.05;;
71108;SDS011;59614;51.012;-1.648;2023-06-24T00:10:45;14.25;;;8.65;;
71108;SDS011;59614;51.012;-1.648;2023-06-24T00:13:11;12.07;;;8.00;;
71108;SDS011;59614;51.012;-1.648;2023-06-24T00:15:37;15.80;;;8.50;;
71108;SDS011;59614;51.012;-1.648;2023-06-24T00:18:07;14.10;;;8.60;;
71108;SDS011;59614;51.012;-1.648;2023-06-24T00:20:33;10.88;;;7.80;;
71108;SDS011;59614;51.012;-1.648;2023-06-24T00:22:58;14.25;;;8.57;;
71108;SDS011;59614;51.012;-1.648;2023-06-24T00:25:24;16.10;;;8.63;;
71108;SDS011;59614;51.012;-1.648;2023-06-24T00:27:49;15.05;;;8.98;;
71108;SDS011;59614;51.012;-1.648;2023-06-24T00:30:14;10.88;;;7.57;;
71108;SDS011;59614;51.012;-1.648;2023-06-24T00:32:40;19.35;;;8.40;;
71108;SDS011;59614;51.012;-1.648;2023-06-24T00:35:05;19.25;;;9.48;;
71108;SDS011;59614;51.012;-1.648;2023-06-24T00:37:31;14.60;;;9.60;;
71108;SDS011;59614;51.012;-1.648;2023-06-24T00:39:57;16.42;;;9.70;;
71108;SDS011;59614;51.012;-1.648;2023-06-24T00:42:23;14.13;;;8.48;;
71108;SDS011;59614;51.012;-1.648;2023-06-24T00:44:48;14.38;;;9.05;;
71108;SDS011;59614;51.012;-1.648;2023-06-24T00:47:14;11.93;;;8.68;;
71108;SDS011;59614;51.012;-1.648;2023-06-24T00:49:40;16.60;;;8.57;;
71108;SDS011;59614;51.012;-1.648;2023-06-24T00:52:10;15.75;;;9.95;;
71108;SDS011;59614;51.012;-1.648;2023-06-24T00:54:41;16.58;;;10.40;;
71108;SDS011;59614;51.012;-1.648;2023-06-24T00:57:07;17.23;;;9.15;;
71108;SDS011;59614;51.012;-1.648;2023-06-24T00:59:33;18.05;;;9.38;;
71108;SDS011;59614;51.012;-1.648;2023-06-24T01:02:00;15.85;;;9.38;;
71108;SDS011;59614;51.012;-1.648;2023-06-24T01:04:26;15.27;;;9.32;;
71108;SDS011;59614;51.012;-1.648;2023-06-24T01:06:52;20.98;;;10.50;;
71108;SDS011;59614;51.012;-1.648;2023-06-24T01:09:18;12.68;;;7.97;;
71108;SDS011;59614;51.012;-1.648;2023-06-24T01:11:43;13.73;;;9.35;;
71108;SDS011;59614;51.012;-1.648;2023-06-24T01:14:09;17.98;;;9.05;;
71108;SDS011;59614;51.012;-1.648;2023-06-24T01:33:14;19.02;;;10.90;;
71108;SDS011;59614;51.012;-1.648;2023-06-24T01:35:47;13.55;;;9.45;;
71108;SDS011;59614;51.012;-1.648;2023-06-24T01:38:16;14.60;;;9.75;;
71108;SDS011;59614;51.012;-1.648;2023-06-24T01:40:51;14.52;;;9.00;;
71108;SDS011;59614;51.012;-1.648;2023-06-24T01:43:18;17.77;;;10.00;;
71108;SDS011;59614;51.012;-1.648;2023-06-24T01:45:47;16.05;;;10.18;;
71108;SDS011;59614;51.012;-1.648;2023-06-24T01:48:19;22.88;;;11.50;;
71108;SDS011;59614;51.012;-1.648;2023-06-24T01:53:29;17.98;;;11.02;;
71108;SDS011;59614;51.012;-1.648;2023-06-24T01:55:59;20.90;;;11.85;;
71108;SDS011;59614;51.012;-1.648;2023-06-24T01:58:26;17.48;;;11.57;;
71108;SDS011;59614;51.012;-1.648;2023-06-24T02:00:53;15.60;;;10.77;;
71108;SDS011;59614;51.012;-1.648;2023-06-24T02:03:20;19.05;;;10.85;;
71108;SDS011;59614;51.012;-1.648;2023-06-24T02:05:46;16.08;;;10.30;;
71108;SDS011;59614;51.012;-1.648;2023-06-24T02:08:14;18.25;;;10.98;;
71108;SDS011;59614;51.012;-1.648;2023-06-24T02:10:41;18.52;;;10.88;;
71108;SDS011;59614;51.012;-1.648;2023-06-24T02:13:09;17.83;;;11.00;;
71108;SDS011;59614;51.012;-1.648;2023-06-24T02:15:36;15.68;;;10.10;;
71108;SDS011;59614;51.012;-1.648;2023-06-24T02:18:04;18.95;;;11.73;;
71108;SDS011;59614;51.012;-1.648;2023-06-24T02:20:31;16.10;;;10.57;;
71108;SDS011;59614;51.012;-1.648;2023-06-24T02:22:58;14.32;;;9.75;;
71108;SDS011;59614;51.012;-1.648;2023-06-24T02:25:24;21.73;;;10.73;;
71108;SDS011;59614;51.012;-1.648;2023-06-24T02:27:52;22.52;;;10.75;;
71108;SDS011;59614;51.012;-1.648;2023-06-24T02:30:20;15.68;;;9.63;;
71108;SDS011;59614;51.012;-1.648;2023-06-24T02:32:47;19.48;;;11.50;;
71108;SDS011;59614;51.012;-1.648;2023-06-24T02:35:12;19.48;;;10.52;;
71108;SDS011;59614;51.012;-1.648;2023-06-24T02:37:38;15.55;;;10.05;;
71108;SDS011;59614;51.012;-1.648;2023-06-24T02:40:03;16.17;;;9.65;;
71108;SDS011;59614;51.012;-1.648;2023-06-24T02:42:31;18.08;;;11.35;;
71108;SDS011;59614;51.012;-1.648;2023-06-24T02:44:56;21.80;;;10.63;;
71108;SDS011;59614;51.012;-1.648;2023-06-24T02:47:21;15.63;;;10.27;;
71108;SDS011;59614;51.012;-1.648;2023-06-24T02:49:48;17.70;;;10.63;;
71108;SDS011;59614;51.012;-1.648;2023-06-24T02:52:16;21.30;;;11.05;;
71108;SDS011;59614;51.012;-1.648;2023-06-24T02:54:42;20.33;;;11.75;;
71108;SDS011;59614;51.012;-1.648;2023-06-24T02:57:09;16.93;;;10.33;;
71108;SDS011;59614;51.012;-1.648;2023-06-24T02:59:35;15.65;;;8.98;;
71108;SDS011;59614;51.012;-1.648;2023-06-24T03:02:01;18.40;;;11.00;;
71108;SDS011;59614;51.012;-1.648;2023-06-24T03:04:28;19.10;;;11.60;;
71108;SDS011;59614;51.012;-1.648;2023-06-24T03:06:54;20.90;;;10.18;;
71108;SDS011;59614;51.012;-1.648;2023-06-24T03:09:21;17.88;;;10.90;;
71108;SDS011;59614;51.012;-1.648;2023-06-24T03:11:48;19.20;;;10.52;;
71108;SDS011;59614;51.012;-1.648;2023-06-24T03:14:13;19.35;;;10.43;;
71108;SDS011;59614;51.012;-1.648;2023-06-24T03:16:39;16.40;;;11.38;;
71108;SDS011;59614;51.012;-1.648;2023-06-24T03:19:04;17.27;;;10.25;;
71108;SDS011;59614;51.012;-1.648;2023-06-24T03:21:30;19.40;;;11.65;;
71108;SDS011;59614;51.012;-1.648;2023-06-24T03:23:56;16.13;;;9.55;;
71108;SDS011;59614;51.012;-1.648;2023-06-24T03:26:23;14.10;;;8.50;;
71108;SDS011;59614;51.012;-1.648;2023-06-24T03:28:48;16.17;;;10.10;;
71108;SDS011;59614;51.012;-1.648;2023-06-24T03:31:14;15.02;;;9.13;;
71108;SDS011;59614;51.012;-1.648;2023-06-24T03:33:42;13.52;;;8.63;;
71108;SDS011;59614;51.012;-1.648;2023-06-24T03:36:11;17.27;;;9.23;;
71108;SDS011;59614;51.012;-1.648;2023-06-24T03:38:37;16.30;;;9.88;;
71108;SDS011;59614;51.012;-1.648;2023-06-24T03:41:03;14.63;;;10.20;;
71108;SDS011;59614;51.012;-1.648;2023-06-24T03:43:28;16.40;;;11.00;;
71108;SDS011;59614;51.012;-1.648;2023-06-24T03:45:54;15.05;;;9.35;;
71108;SDS011;59614;51.012;-1.648;2023-06-24T03:48:20;19.85;;;9.93;;
71108;SDS011;59614;51.012;-1.648;2023-06-24T03:50:45;15.13;;;9.45;;
71108;SDS011;59614;51.012;-1.648;2023-06-24T03:53:11;16.33;;;9.15;;
71108;SDS011;59614;51.012;-1.648;2023-06-24T03:55:36;19.33;;;9.80;;
71108;SDS011;59614;51.012;-1.648;2023-06-24T03:58:01;14.35;;;9.05;;
71108;SDS011;59614;51.012;-1.648;2023-06-24T04:00:27;15.38;;;9.77;;
71108;SDS011;59614;51.012;-1.648;2023-06-24T04:02:52;14.85;;;9.13;;
71108;SDS011;59614;51.012;-1.648;2023-06-24T04:05:18;15.93;;;9.70;;
71108;SDS011;59614;51.012;-1.648;2023-06-24T04:07:45;17.50;;;9.50;;
71108;SDS011;59614;51.012;-1.648;2023-06-24T04:10:12;20.30;;;10.38;;
71108;SDS011;59614;51.012;-1.648;2023-06-24T04:12:37;20.13;;;10.00;;
71108;SDS011;59614;51.012;-1.648;2023-06-24T04:15:03;14.27;;;9.40;;
71108;SDS011;59614;51.012;-1.648;2023-06-24T04:17:30;12.88;;;8.88;;
71108;SDS011;59614;51.012;-1.648;2023-06-24T04:19:56;16.05;;;9.10;;
71108;SDS011;59614;51.012;-1.648;2023-06-24T04:22:21;14.63;;;10.73;;
71108;SDS011;59614;51.012;-1.648;2023-06-24T04:24:47;19.38;;;10.40;;
71108;SDS011;59614;51.012;-1.648;2023-06-24T04:27:12;18.48;;;10.10;;
71108;SDS011;59614;51.012;-1.648;2023-06-24T04:29:38;23.33;;;10.82;;
71108;SDS011;59614;51.012;-1.648;2023-06-24T04:32:03;13.88;;;9.88;;
71108;SDS011;59614;51.012;-1.648;2023-06-24T04:34:29;14.27;;;9.77;;
71108;SDS011;59614;51.012;-1.648;2023-06-24T04:36:54;20.85;;;10.43;;
71108;SDS011;59614;51.012;-1.648;2023-06-24T04:39:20;19.00;;;10.38;;
71108;SDS011;59614;51.012;-1.648;2023-06-24T04:41:45;17.27;;;10.30;;
71108;SDS011;59614;51.012;-1.648;2023-06-24T04:44:11;16.63;;;9.38;;
71108;SDS011;59614;51.012;-1.648;2023-06-24T04:46:37;15.70;;;8.57;;
71108;SDS011;59614;51.012;-1.648;2023-06-24T04:49:02;16.42;;;9.23;;
71108;SDS011;59614;51.012;-1.648;2023-06-24T04:51:28;14.52;;;9.15;;
71108;SDS011;59614;51.012;-1.648;2023-06-24T04:53:53;14.48;;;9.38;;
71108;SDS011;59614;51.012;-1.648;2023-06-24T04:56:20;17.45;;;9.95;;
71108;SDS011;59614;51.012;-1.648;2023-06-24T04:58:45;16.58;;;10.18;;
71108;SDS011;59614;51.012;-1.648;2023-06-24T05:01:11;17.65;;;10.10;;
71108;SDS011;59614;51.012;-1.648;2023-06-24T05:03:36;14.88;;;10.02;;
71108;SDS011;59614;51.012;-1.648;2023-06-24T05:06:02;17.58;;;9.43;;
71108;SDS011;59614;51.012;-1.648;2023-06-24T05:08:27;16.05;;;9.40;;
71108;SDS011;59614;51.012;-1.648;2023-06-24T05:10:53;18.40;;;9.75;;
71108;SDS011;59614;51.012;-1.648;2023-06-24T05:13:18;14.52;;;9.52;;
71108;SDS011;59614;51.012;-1.648;2023-06-24T05:15:43;16.23;;;8.75;;
71108;SDS011;59614;51.012;-1.648;2023-06-24T05:18:09;13.02;;;8.38;;
71108;SDS011;59614;51.012;-1.648;2023-06-24T05:20:34;16.55;;;10.48;;
71108;SDS011;59614;51.012;-1.648;2023-06-24T05:22:59;19.40;;;8.88;;
71108;SDS011;59614;51.012;-1.648;2023-06-24T05:25:25;15.18;;;9.45;;
71108;SDS011;59614;51.012;-1.648;2023-06-24T05:27:50;16.52;;;9.80;;
71108;SDS011;59614;51.012;-1.648;2023-06-24T05:30:15;17.02;;;9.90;;
71108;SDS011;59614;51.012;-1.648;2023-06-24T05:32:41;14.30;;;9.73;;
71108;SDS011;59614;51.012;-1.648;2023-06-24T05:35:06;16.35;;;9.75;;
71108;SDS011;59614;51.012;-1.648;2023-06-24T05:37:32;18.25;;;10.27;;
71108;SDS011;59614;51.012;-1.648;2023-06-24T05:39:57;14.98;;;10.10;;
71108;SDS011;59614;51.012;-1.648;2023-06-24T05:42:26;17.33;;;9.48;;
71108;SDS011;59614;51.012;-1.648;2023-06-24T05:44:51;16.02;;;9.52;;
71108;SDS011;59614;51.012;-1.648;2023-06-24T05:47:17;17.77;;;10.70;;
71108;SDS011;59614;51.012;-1.648;2023-06-24T05:49:42;18.75;;;11.38;;
71108;SDS011;59614;51.012;-1.648;2023-06-24T05:52:07;18.45;;;10.52;;
71108;SDS011;59614;51.012;-1.648;2023-06-24T05:54:33;19.23;;;10.55;;
71108;SDS011;59614;51.012;-1.648;2023-06-24T05:56:58;18.88;;;10.32;;
71108;SDS011;59614;51.012;-1.648;2023-06-24T05:59:23;17.15;;;10.13;;
71108;SDS011;59614;51.012;-1.648;2023-06-24T06:01:49;16.05;;;10.07;;
71108;SDS011;59614;51.012;-1.648;2023-06-24T06:04:14;15.70;;;10.50;;
71108;SDS011;59614;51.012;-1.648;2023-06-24T06:06:40;17.00;;;10.70;;
71108;SDS011;59614;51.012;-1.648;2023-06-24T06:09:05;14.48;;;9.63;;
71108;SDS011;59614;51.012;-1.648;2023-06-24T06:11:31;15.27;;;9.70;;
71108;SDS011;59614;51.012;-1.648;2023-06-24T06:13:56;13.68;;;9.18;;
71108;SDS011;59614;51.012;-1.648;2023-06-24T06:16:22;11.23;;;7.78;;
71108;SDS011;59614;51.012;-1.648;2023-06-24T06:18:48;11.35;;;8.43;;
71108;SDS011;59614;51.012;-1.648;2023-06-24T06:21:14;13.45;;;8.68;;
71108;SDS011;59614;51.012;-1.648;2023-06-24T06:23:39;18.73;;;9.43;;
71108;SDS011;59614;51.012;-1.648;2023-06-24T06:26:04;16.33;;;9.30;;
71108;SDS011;59614;51.012;-1.648;2023-06-24T06:28:30;15.35;;;9.85;;
71108;SDS011;59614;51.012;-1.648;2023-06-24T06:30:55;12.48;;;8.52;;
71108;SDS011;59614;51.012;-1.648;2023-06-24T06:33:22;14.05;;;8.85;;
71108;SDS011;59614;51.012;-1.648;2023-06-24T06:35:47;15.13;;;10.00;;
71108;SDS011;59614;51.012;-1.648;2023-06-24T06:38:13;13.73;;;9.23;;
71108;SDS011;59614;51.012;-1.648;2023-06-24T06:40:38;13.27;;;9.18;;
71108;SDS011;59614;51.012;-1.648;2023-06-24T06:43:03;12.90;;;8.48;;
71108;SDS011;59614;51.012;-1.648;2023-06-24T06:45:29;17.30;;;10.13;;
71108;SDS011;59614;51.012;-1.648;2023-06-24T06:47:54;12.45;;;8.63;;
71108;SDS011;59614;51.012;-1.648;2023-06-24T06:50:19;16.08;;;8.57;;
71108;SDS011;59614;51.012;-1.648;2023-06-24T06:52:45;14.50;;;9.10;;
71108;SDS011;59614;51.012;-1.648;2023-06-24T06:55:10;15.82;;;8.98;;
71108;SDS011;59614;51.012;-1.648;2023-06-24T06:57:36;13.27;;;7.60;;
71108;SDS011;59614;51.012;-1.648;2023-06-24T07:00:01;12.35;;;8.82;;
71108;SDS011;59614;51.012;-1.648;2023-06-24T07:02:27;12.20;;;8.18;;
71108;SDS011;59614;51.012;-1.648;2023-06-24T07:04:52;14.30;;;8.45;;
71108;SDS011;59614;51.012;-1.648;2023-06-24T07:07:17;10.70;;;7.75;;
71108;SDS011;59614;51.012;-1.648;2023-06-24T07:09:43;13.90;;;8.18;;
71108;SDS011;59614;51.012;-1.648;2023-06-24T07:12:09;14.85;;;8.90;;
71108;SDS011;59614;51.012;-1.648;2023-06-24T07:14:34;12.25;;;8.15;;
71108;SDS011;59614;51.012;-1.648;2023-06-24T07:17:00;12.38;;;7.22;;
71108;SDS011;59614;51.012;-1.648;2023-06-24T07:19:25;9.30;;;6.10;;
71108;SDS011;59614;51.012;-1.648;2023-06-24T07:21:51;9.50;;;6.30;;
71108;SDS011;59614;51.012;-1.648;2023-06-24T07:24:16;11.90;;;6.82;;
71108;SDS011;59614;51.012;-1.648;2023-06-24T07:26:42;9.82;;;6.38;;
71108;SDS011;59614;51.012;-1.648;2023-06-24T07:29:08;9.38;;;5.90;;
71108;SDS011;59614;51.012;-1.648;2023-06-24T07:31:34;9.65;;;6.10;;
71108;SDS011;59614;51.012;-1.648;2023-06-24T07:33:59;10.65;;;6.05;;
71108;SDS011;59614;51.012;-1.648;2023-06-24T07:36:25;8.98;;;5.93;;
71108;SDS011;59614;51.012;-1.648;2023-06-24T07:38:50;9.48;;;6.07;;
71108;SDS011;59614;51.012;-1.648;2023-06-24T07:41:16;8.93;;;6.03;;
71108;SDS011;59614;51.012;-1.648;2023-06-24T07:43:41;7.93;;;4.85;;
71108;SDS011;59614;51.012;-1.648;2023-06-24T07:46:06;11.80;;;5.20;;
71108;SDS011;59614;51.012;-1.648;2023-06-24T07:48:32;8.23;;;5.40;;
71108;SDS011;59614;51.012;-1.648;2023-06-24T07:50:57;8.10;;;5.07;;
71108;SDS011;59614;51.012;-1.648;2023-06-24T07:53:23;9.30;;;5.30;;
71108;SDS011;59614;51.012;-1.648;2023-06-24T07:55:48;5.85;;;4.45;;
71108;SDS011;59614;51.012;-1.648;2023-06-24T07:58:14;7.85;;;4.43;;
71108;SDS011;59614;51.012;-1.648;2023-06-24T08:00:39;7.72;;;4.35;;
71108;SDS011;59614;51.012;-1.648;2023-06-24T08:03:04;5.90;;;4.28;;
71108;SDS011;59614;51.012;-1.648;2023-06-24T08:05:30;6.82;;;4.47;;
71108;SDS011;59614;51.012;-1.648;2023-06-24T08:07:55;7.03;;;4.43;;
71108;SDS011;59614;51.012;-1.648;2023-06-24T08:10:21;6.38;;;4.20;;
71108;SDS011;59614;51.012;-1.648;2023-06-24T08:12:46;5.85;;;3.90;;
71108;SDS011;59614;51.012;-1.648;2023-06-24T08:15:13;6.63;;;4.40;;
71108;SDS011;59614;51.012;-1.648;2023-06-24T08:17:38;7.43;;;4.20;;
71108;SDS011;59614;51.012;-1.648;2023-06-24T08:20:04;5.82;;;3.83;;
71108;SDS011;59614;51.012;-1.648;2023-06-24T08:22:29;6.65;;;3.90;;
71108;SDS011;59614;51.012;-1.648;2023-06-24T08:24:55;7.38;;;4.30;;
71108;SDS011;59614;51.012;-1.648;2023-06-24T08:27:21;5.78;;;4.10;;
71108;SDS011;59614;51.012;-1.648;2023-06-24T08:29:46;6.05;;;4.18;;
71108;SDS011;59614;51.012;-1.648;2023-06-24T08:32:12;7.03;;;4.20;;
71108;SDS011;59614;51.012;-1.648;2023-06-24T08:34:37;7.38;;;4.03;;
71108;SDS011;59614;51.012;-1.648;2023-06-24T08:37:02;5.22;;;3.75;;
71108;SDS011;59614;51.012;-1.648;2023-06-24T08:39:28;6.88;;;3.85;;
71108;SDS011;59614;51.012;-1.648;2023-06-24T08:41:53;6.20;;;4.00;;
71108;SDS011;59614;51.012;-1.648;2023-06-24T08:44:19;7.13;;;4.25;;
71108;SDS011;59614;51.012;-1.648;2023-06-24T08:46:44;4.85;;;3.67;;
71108;SDS011;59614;51.012;-1.648;2023-06-24T08:49:25;6.75;;;3.80;;
71108;SDS011;59614;51.012;-1.648;2023-06-24T08:51:59;6.30;;;4.05;;
71108;SDS011;59614;51.012;-1.648;2023-06-24T08:54:30;6.90;;;4.10;;
71108;SDS011;59614;51.012;-1.648;2023-06-24T08:56:57;7.57;;;3.67;;
71108;SDS011;59614;51.012;-1.648;2023-06-24T08:59:26;6.18;;;3.95;;
71108;SDS011;59614;51.012;-1.648;2023-06-24T09:01:51;6.00;;;3.80;;
71108;SDS011;59614;51.012;-1.648;2023-06-24T09:04:17;6.25;;;3.70;;
71108;SDS011;59614;51.012;-1.648;2023-06-24T09:06:42;6.55;;;4.13;;
71108;SDS011;59614;51.012;-1.648;2023-06-24T09:09:20;9.10;;;4.25;;
71108;SDS011;59614;51.012;-1.648;2023-06-24T09:11:53;7.07;;;4.22;;
71108;SDS011;59614;51.012;-1.648;2023-06-24T09:14:21;7.07;;;4.15;;
71108;SDS011;59614;51.012;-1.648;2023-06-24T09:17:08;7.85;;;4.10;;
71108;SDS011;59614;51.012;-1.648;2023-06-24T09:19:34;5.05;;;3.63;;
71108;SDS011;59614;51.012;-1.648;2023-06-24T09:22:08;6.47;;;4.50;;
71108;SDS011;59614;51.012;-1.648;2023-06-24T09:24:41;6.63;;;3.90;;
71108;SDS011;59614;51.012;-1.648;2023-06-24T09:27:07;7.20;;;4.13;;
71108;SDS011;59614;51.012;-1.648;2023-06-24T09:29:33;7.72;;;4.20;;
71108;SDS011;59614;51.012;-1.648;2023-06-24T09:32:03;6.82;;;3.80;;
71108;SDS011;59614;51.012;-1.648;2023-06-24T09:34:29;5.72;;;3.75;;
71108;SDS011;59614;51.012;-1.648;2023-06-24T09:36:56;5.93;;;3.70;;
71108;SDS011;59614;51.012;-1.648;2023-06-24T09:39:22;6.80;;;3.63;;
71108;SDS011;59614;51.012;-1.648;2023-06-24T09:41:54;5.78;;;3.47;;
71108;SDS011;59614;51.012;-1.648;2023-06-24T09:44:23;6.13;;;3.65;;
71108;SDS011;59614;51.012;-1.648;2023-06-24T09:46:50;5.05;;;3.47;;
71108;SDS011;59614;51.012;-1.648;2023-06-24T09:49:17;5.10;;;3.28;;
71108;SDS011;59614;51.012;-1.648;2023-06-24T09:51:51;10.02;;;3.53;;
71108;SDS011;59614;51.012;-1.648;2023-06-24T09:54:27;10.00;;;3.90;;
71108;SDS011;59614;51.012;-1.648;2023-06-24T09:56:54;6.43;;;3.53;;
71108;SDS011;59614;51.012;-1.648;2023-06-24T09:59:23;6.50;;;3.80;;
71108;SDS011;59614;51.012;-1.648;2023-06-24T10:01:49;6.15;;;3.22;;
71108;SDS011;59614;51.012;-1.648;2023-06-24T10:04:18;6.78;;;3.50;;
71108;SDS011;59614;51.012;-1.648;2023-06-24T10:06:46;6.05;;;3.47;;
71108;SDS011;59614;51.012;-1.648;2023-06-24T10:09:12;5.47;;;3.47;;
71108;SDS011;59614;51.012;-1.648;2023-06-24T10:11:41;5.40;;;3.55;;
71108;SDS011;59614;51.012;-1.648;2023-06-24T10:14:07;5.65;;;3.55;;
71108;SDS011;59614;51.012;-1.648;2023-06-24T10:16:33;5.40;;;3.30;;
71108;SDS011;59614;51.012;-1.648;2023-06-24T10:19:02;5.47;;;3.40;;
71108;SDS011;59614;51.012;-1.648;2023-06-24T10:21:44;6.25;;;3.30;;
71108;SDS011;59614;51.012;-1.648;2023-06-24T10:24:32;7.65;;;3.35;;
71108;SDS011;59614;51.012;-1.648;2023-06-24T10:27:03;8.60;;;3.25;;
71108;SDS011;59614;51.012;-1.648;2023-06-24T10:29:34;10.45;;;4.75;;
71108;SDS011;59614;51.012;-1.648;2023-06-24T10:50:06;7.07;;;3.60;;
71108;SDS011;59614;51.012;-1.648;2023-06-24T10:52:35;4.53;;;3.28;;
71108;SDS011;59614;51.012;-1.648;2023-06-24T10:55:03;4.88;;;3.30;;
71108;SDS011;59614;51.012;-1.648;2023-06-24T10:57:28;5.45;;;3.63;;
71108;SDS011;59614;51.012;-1.648;2023-06-24T10:59:54;5.35;;;3.28;;
71108;SDS011;59614;51.012;-1.648;2023-06-24T11:02:25;4.95;;;3.30;;
71108;SDS011;59614;51.012;-1.648;2023-06-24T11:07:18;5.70;;;2.97;;
71108;SDS011;59614;51.012;-1.648;2023-06-24T11:12:18;5.55;;;3.10;;
71108;SDS011;59614;51.012;-1.648;2023-06-24T11:14:44;4.70;;;3.10;;
71108;SDS011;59614;51.012;-1.648;2023-06-24T11:17:10;5.20;;;2.80;;
71108;SDS011;59614;51.012;-1.648;2023-06-24T11:19:35;5.80;;;3.05;;
71108;SDS011;59614;51.012;-1.648;2023-06-24T11:22:04;3.65;;;2.63;;
71108;SDS011;59614;51.012;-1.648;2023-06-24T11:24:30;4.83;;;3.17;;
71108;SDS011;59614;51.012;-1.648;2023-06-24T11:26:55;6.10;;;3.03;;
71108;SDS011;59614;51.012;-1.648;2023-06-24T11:29:22;5.75;;;2.92;;
71108;SDS011;59614;51.012;-1.648;2023-06-24T11:31:48;3.58;;;2.88;;
71108;SDS011;59614;51.012;-1.648;2023-06-24T11:34:14;4.30;;;2.60;;
71108;SDS011;59614;51.012;-1.648;2023-06-24T11:36:40;6.68;;;2.70;;
71108;SDS011;59614;51.012;-1.648;2023-06-24T11:39:05;3.60;;;2.42;;
71108;SDS011;59614;51.012;-1.648;2023-06-24T11:41:31;3.70;;;2.67;;
71108;SDS011;59614;51.012;-1.648;2023-06-24T11:43:59;4.27;;;2.73;;
71108;SDS011;59614;51.012;-1.648;2023-06-24T11:46:28;3.40;;;2.38;;
71108;SDS011;59614;51.012;-1.648;2023-06-24T11:49:06;4.93;;;2.30;;
71108;SDS011;59614;51.012;-1.648;2023-06-24T11:51:33;4.35;;;2.42;;
71108;SDS011;59614;51.012;-1.648;2023-06-24T11:54:00;5.57;;;2.75;;
71108;SDS011;59614;51.012;-1.648;2023-06-24T11:57:00;3.70;;;2.38;;
71108;SDS011;59614;51.012;-1.648;2023-06-24T11:59:20;4.47;;;2.63;;
71108;SDS011;59614;51.012;-1.648;2023-06-24T12:01:56;4.05;;;2.78;;
71108;SDS011;59614;51.012;-1.648;2023-06-24T12:04:29;3.45;;;2.38;;
71108;SDS011;59614;51.012;-1.648;2023-06-24T12:06:55;4.65;;;2.70;;
71108;SDS011;59614;51.012;-1.648;2023-06-24T12:09:21;5.03;;;2.80;;
71108;SDS011;59614;51.012;-1.648;2023-06-24T12:11:47;6.65;;;2.50;;
71108;SDS011;59614;51.012;-1.648;2023-06-24T12:14:12;5.93;;;2.65;;
71108;SDS011;59614;51.012;-1.648;2023-06-24T12:16:38;5.22;;;2.67;;
71108;SDS011;59614;51.012;-1.648;2023-06-24T12:19:05;7.97;;;2.60;;
71108;SDS011;59614;51.012;-1.648;2023-06-24T12:21:34;6.85;;;2.60;;
71108;SDS011;59614;51.012;-1.648;2023-06-24T12:24:00;6.07;;;3.00;;
71108;SDS011;59614;51.012;-1.648;2023-06-24T12:26:29;5.80;;;2.97;;
71108;SDS011;59614;51.012;-1.648;2023-06-24T12:28:56;4.80;;;2.90;;
71108;SDS011;59614;51.012;-1.648;2023-06-24T12:31:22;2.92;;;2.30;;
71108;SDS011;59614;51.012;-1.648;2023-06-24T12:33:47;4.10;;;2.50;;
71108;SDS011;59614;51.012;-1.648;2023-06-24T12:36:13;5.53;;;2.63;;
71108;SDS011;59614;51.012;-1.648;2023-06-24T12:38:38;2.95;;;2.00;;
71108;SDS011;59614;51.012;-1.648;2023-06-24T12:41:04;2.70;;;1.95;;
71108;SDS011;59614;51.012;-1.648;2023-06-24T12:43:29;2.80;;;2.00;;
71108;SDS011;59614;51.012;-1.648;2023-06-24T12:45:54;5.13;;;2.08;;
71108;SDS011;59614;51.012;-1.648;2023-06-24T12:48:20;2.85;;;2.10;;
71108;SDS011;59614;51.012;-1.648;2023-06-24T12:50:46;2.38;;;1.90;;
71108;SDS011;59614;51.012;-1.648;2023-06-24T12:53:12;3.17;;;2.08;;
71108;SDS011;59614;51.012;-1.648;2023-06-24T12:58:04;2.80;;;1.87;;
71108;SDS011;59614;51.012;-1.648;2023-06-24T13:00:30;3.50;;;2.10;;
71108;SDS011;59614;51.012;-1.648;2023-06-24T13:02:55;2.33;;;1.90;;
71108;SDS011;59614;51.012;-1.648;2023-06-24T13:05:21;2.20;;;1.67;;
71108;SDS011;59614;51.012;-1.648;2023-06-24T13:07:47;3.22;;;2.03;;
71108;SDS011;59614;51.012;-1.648;2023-06-24T13:10:12;5.50;;;2.10;;
71108;SDS011;59614;51.012;-1.648;2023-06-24T13:12:37;2.57;;;1.70;;
71108;SDS011;59614;51.012;-1.648;2023-06-24T13:15:04;2.72;;;2.00;;
71108;SDS011;59614;51.012;-1.648;2023-06-24T13:17:31;2.22;;;1.77;;
71108;SDS011;59614;51.012;-1.648;2023-06-24T13:19:56;4.18;;;1.70;;
71108;SDS011;59614;51.012;-1.648;2023-06-24T13:22:22;2.77;;;1.93;;
71108;SDS011;59614;51.012;-1.648;2023-06-24T13:24:48;2.87;;;1.90;;
71108;SDS011;59614;51.012;-1.648;2023-06-24T13:27:13;3.13;;;2.00;;
71108;SDS011;59614;51.012;-1.648;2023-06-24T13:29:38;2.97;;;1.90;;
71108;SDS011;59614;51.012;-1.648;2023-06-24T13:32:04;2.75;;;1.80;;
71108;SDS011;59614;51.012;-1.648;2023-06-24T13:34:30;3.43;;;2.03;;
71108;SDS011;59614;51.012;-1.648;2023-06-24T13:36:55;2.10;;;1.60;;
71108;SDS011;59614;51.012;-1.648;2023-06-24T13:39:21;5.70;;;2.03;;
71108;SDS011;59614;51.012;-1.648;2023-06-24T13:41:48;2.50;;;1.75;;
71108;SDS011;59614;51.012;-1.648;2023-06-24T13:44:14;1.55;;;1.40;;
71108;SDS011;59614;51.012;-1.648;2023-06-24T13:46:40;1.90;;;1.70;;
71108;SDS011;59614;51.012;-1.648;2023-06-24T13:49:05;2.83;;;1.73;;
71108;SDS011;59614;51.012;-1.648;2023-06-24T13:51:31;2.40;;;1.80;;
71108;SDS011;59614;51.012;-1.648;2023-06-24T13:53:56;2.97;;;1.70;;
71108;SDS011;59614;51.012;-1.648;2023-06-24T13:56:22;2.73;;;1.93;;
71108;SDS011;59614;51.012;-1.648;2023-06-24T13:58:49;2.47;;;1.90;;
71108;SDS011;59614;51.012;-1.648;2023-06-24T14:01:15;4.63;;;2.20;;
71108;SDS011;59614;51.012;-1.648;2023-06-24T14:03:41;3.10;;;1.90;;
71108;SDS011;59614;51.012;-1.648;2023-06-24T14:06:06;2.43;;;1.90;;
71108;SDS011;59614;51.012;-1.648;2023-06-24T14:08:32;3.10;;;1.90;;
71108;SDS011;59614;51.012;-1.648;2023-06-24T14:10:58;2.35;;;1.80;;
71108;SDS011;59614;51.012;-1.648;2023-06-24T14:13:25;2.92;;;1.90;;
71108;SDS011;59614;51.012;-1.648;2023-06-24T14:15:51;4.78;;;2.03;;
71108;SDS011;59614;51.012;-1.648;2023-06-24T14:18:17;2.97;;;2.00;;
71108;SDS011;59614;51.012;-1.648;2023-06-24T14:20:43;2.97;;;2.10;;
71108;SDS011;59614;51.012;-1.648;2023-06-24T14:23:08;3.40;;;2.07;;
71108;SDS011;59614;51.012;-1.648;2023-06-24T14:25:33;2.90;;;2.00;;
71108;SDS011;59614;51.012;-1.648;2023-06-24T14:27:59;3.00;;;1.90;;
71108;SDS011;59614;51.012;-1.648;2023-06-24T14:30:24;3.07;;;1.90;;
71108;SDS011;59614;51.012;-1.648;2023-06-24T14:32:50;2.63;;;1.93;;
71108;SDS011;59614;51.012;-1.648;2023-06-24T14:35:15;2.10;;;1.90;;
71108;SDS011;59614;51.012;-1.648;2023-06-24T14:37:41;2.57;;;1.80;;
71108;SDS011;59614;51.012;-1.648;2023-06-24T14:40:07;2.97;;;1.98;;
71108;SDS011;59614;51.012;-1.648;2023-06-24T14:42:33;3.35;;;2.10;;
71108;SDS011;59614;51.012;-1.648;2023-06-24T14:44:58;3.70;;;2.07;;
71108;SDS011;59614;51.012;-1.648;2023-06-24T14:47:23;3.57;;;1.90;;
71108;SDS011;59614;51.012;-1.648;2023-06-24T14:49:49;3.23;;;1.93;;
71108;SDS011;59614;51.012;-1.648;2023-06-24T14:52:14;2.80;;;2.00;;
71108;SDS011;59614;51.012;-1.648;2023-06-24T14:54:40;2.97;;;2.00;;
71108;SDS011;59614;51.012;-1.648;2023-06-24T14:57:05;2.40;;;1.90;;
71108;SDS011;59614;51.012;-1.648;2023-06-24T14:59:30;3.47;;;2.10;;
71108;SDS011;59614;51.012;-1.648;2023-06-24T15:01:56;3.97;;;2.10;;
71108;SDS011;59614;51.012;-1.648;2023-06-24T15:04:21;2.27;;;1.90;;
71108;SDS011;59614;51.012;-1.648;2023-06-24T15:06:46;3.47;;;1.90;;